Aérodrome :
LOGIN :

S'inscrire | Disclaimer

   EN    FR    IT 

 










Légende :    VFR   VFR Marginal   IFR   IFR Intensif   IFR Très Intensif
Visi : 
Plafond : 
>= 8 km
>= 3000ft
5 à 8 km
1000 à 3000 ft
1500m à 5 km
500 à 1000 ft
800 à 1500m
200 à 500 ft
< 800m
< 200 ft
Symboles :   Orages  Brouillard  Fortes neiges  Fortes précipitations  Vent > 20 kt
SIGMETs :   Divers  Orages  Givrage  Turbulence  Onde Orograph.  Cendres Volcan.






- Altitude de l'aérodrome : 306 ft
- Code IATA : EMA


EGNX - Nottingham East Midlands

DERNIER METAR :
  • 242320Z 20005KT CAVOK 12/08 Q1033

METARs EXPIRÉS :
  • 242250Z 23006KT CAVOK 11/08 Q1033
  • 242220Z 27004KT CAVOK 12/08 Q1033
  • 242150Z 27004KT CAVOK 12/08 Q1033
  • 242120Z 30005KT CAVOK 13/08 Q1033
  • 242050Z 30006KT CAVOK 13/08 Q1032

TAF TAF EGNX
Valide du 25 à 00h jusqu'au 26 à 00h UTC


242251Z 2500/2524 29005KT 9999 FEW035
PROB30 2500/2506 4000 BR MIFG
BECMG 2509/2512 23010KT
ATIS : +44 1332 852 852 (ext 3201)



MET'MAP, la Météo Aéronautique d'un coup d'oeil ! - Copyright ORBIFLY Décembre 2007 - Disclaimer

ORBIFLY MET'MAP TEAM :

Programmation & Développement : Alexandra Zaïnal
Sur une idée originale de : Baudouin d'Aumeries
Assistance à la programmation : Marc-Olivier Méhu
Soutien technique & logistique : Manuel Goepfert

Contact : metmap@orbifly.com




SOURCES & CREDITS :

   NOAA